Time;durP1;ratioP1;P1;durP2;ratioP2;P2;SDS_P1;SDS_P2;PMS_P1;PMS_P2;Temp;Humidity;BMP_temperature;BMP_pressure;BME280_temperature;BME280_humidity;BME280_pressure;Samples;Min_cycle;Max_cycle;Signal;HPM_P1;HPM_P2
2021/12/22 00:08:52;;;;;;;24.20;15.20;;;;;;;-6.26;82.37;100359.75;435514;1311;144442;-66
2021/12/22 00:18:58;;;;;;;16.50;10.90;;;;;;;-6.43;82.53;100371.06;430643;1310;141733;-65
2021/12/22 00:29:05;;;;;;;15.30;9.90;;;;;;;-6.46;82.75;100375.09;427620;1309;141874;-64
2021/12/22 00:39:11;;;;;;;21.10;12.90;;;;;;;-6.47;82.92;100377.27;433575;1310;197359;-68
2021/12/22 00:49:16;;;;;;;22.40;14.00;;;;;;;-6.64;82.81;100388.04;435525;1312;143109;-68
2021/12/22 00:59:22;;;;;;;25.90;16.20;;;;;;;-6.86;82.77;100395.29;434845;1309;142185;-69
2021/12/22 01:09:28;;;;;;;23.70;17.30;;;;;;;-7.04;82.72;100396.45;434688;1311;141872;-67
2021/12/22 01:19:43;;;;;;;24.70;15.60;;;;;;;-7.20;82.72;100401.91;429956;1311;141719;-69
2021/12/22 01:29:51;;;;;;;31.50;16.80;;;;;;;-7.25;82.95;100405.88;435505;1309;142427;-72
2021/12/22 01:39:57;;;;;;;19.90;13.70;;;;;;;-7.23;82.94;100413.22;434784;1311;143671;-70
2021/12/22 01:50:01;;;;;;;;;;;;;;;-7.23;82.99;100416.81;427580;1312;142107;-72
2021/12/22 02:00:10;;;;;;;17.90;11.70;;;;;;;-7.27;82.86;100416.73;434836;1310;129268;-69
2021/12/22 02:10:34;;;;;;;18.10;10.70;;;;;;;-7.31;82.87;100413.91;434969;1309;142441;-67
2021/12/22 02:20:46;;;;;;;22.80;13.40;;;;;;;-7.39;82.89;100417.64;435418;1308;142278;-68
2021/12/22 02:30:53;;;;;;;21.70;11.60;;;;;;;-7.53;82.59;100415.64;434562;1309;143864;-71
2021/12/22 02:40:58;;;;;;;17.30;10.90;;;;;;;-7.64;82.76;100409.09;435431;1309;142786;-69
2021/12/22 02:51:03;;;;;;;;;;;;;;;-7.72;82.77;100411.46;434763;1309;142657;-69
2021/12/22 03:01:24;;;;;;;14.70;9.30;;;;;;;-7.71;83.02;100415.05;432697;1309;127804;-69
2021/12/22 03:11:33;;;;;;;14.80;10.10;;;;;;;-7.76;83.07;100409.98;435608;1309;141405;-70
2021/12/22 03:21:40;;;;;;;12.60;9.20;;;;;;;-7.84;83.33;100415.77;428126;1311;143290;-71
2021/12/22 03:31:47;;;;;;;14.70;9.50;;;;;;;-7.89;83.48;100426.35;433110;1309;141904;-70
2021/12/22 03:41:56;;;;;;;17.40;9.50;;;;;;;-7.95;83.20;100436.59;434743;1312;141439;-70
2021/12/22 03:52:04;;;;;;;14.90;9.00;;;;;;;-8.02;83.25;100448.46;434652;1311;142731;-69
2021/12/22 04:02:11;;;;;;;16.50;9.30;;;;;;;-8.05;83.28;100451.29;435006;1310;147106;-70
2021/12/22 04:12:17;;;;;;;15.40;9.10;;;;;;;-8.09;83.17;100450.99;434410;1310;143143;-71
2021/12/22 04:22:23;;;;;;;20.90;11.00;;;;;;;-8.06;83.52;100452.79;424119;1310;142178;-70
2021/12/22 04:32:29;;;;;;;19.30;11.60;;;;;;;-7.99;83.69;100450.92;418751;1312;142679;-70
2021/12/22 04:42:35;;;;;;;19.50;11.50;;;;;;;-7.96;83.89;100456.44;417539;1311;141620;-69
2021/12/22 04:52:47;;;;;;;17.60;10.30;;;;;;;-8.00;83.80;100461.25;419265;1310;142092;-67
2021/12/22 05:02:53;;;;;;;21.80;13.20;;;;;;;-8.26;83.38;100455.83;423500;1311;142468;-68
2021/12/22 05:12:59;;;;;;;16.00;10.10;;;;;;;-8.51;83.17;100465.38;434199;1310;142395;-68
2021/12/22 05:23:05;;;;;;;19.00;11.00;;;;;;;-8.68;83.16;100466.27;433224;1309;142730;-68
2021/12/22 05:33:10;;;;;;;21.80;15.60;;;;;;;-8.82;82.98;100475.56;433591;1310;142311;-72
2021/12/22 05:43:20;;;;;;;21.50;14.10;;;;;;;-8.92;82.73;100489.34;433536;1311;145171;-72
2021/12/22 05:53:26;;;;;;;30.90;18.90;;;;;;;-8.98;82.77;100493.26;433648;1311;142099;-70
2021/12/22 06:03:31;;;;;;;31.70;20.20;;;;;;;-8.92;82.92;100498.50;433968;1311;142782;-68
2021/12/22 06:13:37;;;;;;;23.50;17.30;;;;;;;-8.92;82.95;100509.55;433413;1311;142787;-72
2021/12/22 06:23:43;;;;;;;38.50;22.20;;;;;;;-9.02;82.93;100528.26;433271;1307;142378;-69
2021/12/22 06:33:49;;;;;;;42.80;25.20;;;;;;;-9.08;83.14;100538.76;421426;1311;142851;-70
2021/12/22 06:43:55;;;;;;;39.50;24.80;;;;;;;-9.11;82.99;100545.45;419475;1309;142296;-69
2021/12/22 06:54:00;;;;;;;51.10;30.30;;;;;;;-8.95;83.47;100560.69;423622;1309;142522;-66
2021/12/22 07:04:07;;;;;;;53.90;31.50;;;;;;;-8.41;83.91;100566.50;431973;1309;142382;-68
2021/12/22 07:14:14;;;;;;;61.90;36.90;;;;;;;-7.78;83.64;100572.65;430995;1309;143251;-68
2021/12/22 07:24:20;;;;;;;48.00;30.00;;;;;;;-7.12;83.56;100586.55;423852;1310;142453;-68
2021/12/22 07:34:34;;;;;;;61.40;31.50;;;;;;;-6.46;83.24;100590.42;434620;1310;143517;-69
2021/12/22 07:44:40;;;;;;;46.80;32.60;;;;;;;-6.21;82.60;100596.09;433303;1312;141876;-68
2021/12/22 07:54:46;;;;;;;43.60;24.50;;;;;;;-5.35;82.66;100597.64;421128;1309;143448;-69
2021/12/22 08:04:51;;;;;;;26.00;18.10;;;;;;;-3.99;81.95;100591.04;421272;1310;142016;-59
2021/12/22 08:14:57;;;;;;;29.10;17.60;;;;;;;-3.10;80.66;100591.96;419311;1310;142822;-56
2021/12/22 08:25:06;;;;;;;24.80;14.90;;;;;;;-2.32;80.13;100598.43;418706;1309;198478;-59
2021/12/22 08:35:15;;;;;;;23.10;13.50;;;;;;;-0.19;78.73;100598.96;435578;1307;141921;-59
2021/12/22 08:45:21;;;;;;;20.60;12.20;;;;;;;-0.04;76.20;100606.69;433537;1310;142061;-60
2021/12/22 08:55:27;;;;;;;20.90;13.10;;;;;;;-0.84;75.95;100608.77;433888;1311;144902;-64
2021/12/22 09:05:33;;;;;;;21.70;12.40;;;;;;;-1.16;75.77;100614.95;423304;1309;142545;-61
2021/12/22 09:15:39;;;;;;;20.00;13.90;;;;;;;-1.53;75.33;100620.56;419052;1310;142487;-63
2021/12/22 09:25:44;;;;;;;23.50;14.60;;;;;;;-1.97;75.20;100621.80;420799;1309;142017;-61
2021/12/22 09:35:52;;;;;;;21.10;15.40;;;;;;;-2.07;75.43;100621.59;433521;1307;142167;-62
2021/12/22 09:46:02;;;;;;;23.80;14.10;;;;;;;-2.20;75.40;100617.41;434209;1310;142075;-61
2021/12/22 09:56:09;;;;;;;21.10;13.00;;;;;;;-2.20;75.31;100608.65;430223;1310;143055;-68
2021/12/22 10:06:15;;;;;;;18.80;13.00;;;;;;;-2.72;74.93;100608.01;418083;1311;142346;-61
2021/12/22 10:16:22;;;;;;;22.10;13.90;;;;;;;-3.00;75.06;100605.07;418627;1311;142534;-65
2021/12/22 10:26:30;;;;;;;23.30;13.40;;;;;;;-3.25;75.39;100610.84;433810;1310;142776;-65
2021/12/22 10:36:50;;;;;;;22.80;13.90;;;;;;;-3.37;75.63;100609.19;432158;1311;142429;-65
2021/12/22 10:47:14;;;;;;;19.20;12.80;;;;;;;-3.36;75.78;100609.19;432797;1309;143794;-64
2021/12/22 10:57:20;;;;;;;20.50;14.60;;;;;;;-3.46;75.81;100609.61;425164;1312;141984;-62
2021/12/22 11:07:29;;;;;;;12.50;8.70;;;;;;;-3.47;75.74;100601.04;421836;1312;142176;-66
2021/12/22 11:17:40;;;;;;;16.10;10.60;;;;;;;-3.42;75.50;100598.52;431042;1309;141407;-67
2021/12/22 11:27:46;;;;;;;18.50;12.60;;;;;;;-3.33;75.34;100591.08;432116;1308;142990;-65
2021/12/22 11:37:52;;;;;;;15.80;9.80;;;;;;;-3.23;75.23;100588.42;418620;1313;142298;-65
2021/12/22 11:48:00;;;;;;;19.20;10.50;;;;;;;-3.11;74.93;100580.64;420929;1311;142461;-65
2021/12/22 11:58:17;;;;;;;16.20;11.00;;;;;;;-3.01;74.70;100577.13;433248;1309;142980;-69
2021/12/22 12:08:21;;;;;;;;;;;;;;;-2.84;74.62;100566.45;426599;1311;142858;-72
2021/12/22 12:29:55;;;;;;;15.00;10.60;;;;;;;-2.57;73.43;100561.82;418950;1309;142907;-63
2021/12/22 12:40:01;;;;;;;17.10;11.00;;;;;;;-2.82;73.18;100563.38;435179;1309;142086;-69
2021/12/22 12:50:22;;;;;;;15.30;9.40;;;;;;;-2.92;73.08;100559.54;422732;1309;142074;-67
2021/12/22 13:00:28;;;;;;;15.60;9.80;;;;;;;-2.88;72.87;100564.70;434803;1311;169156;-68
2021/12/22 13:10:35;;;;;;;18.40;10.10;;;;;;;-2.83;72.72;100569.36;424547;1310;141600;-67
2021/12/22 13:20:43;;;;;;;18.20;11.00;;;;;;;-2.69;72.64;100580.42;419398;1312;142292;-69
2021/12/22 13:30:52;;;;;;;18.10;9.70;;;;;;;-2.52;72.64;100582.92;419661;1312;142601;-69
2021/12/22 13:41:00;;;;;;;17.40;10.90;;;;;;;-2.50;72.20;100572.48;432729;1311;141700;-68
2021/12/22 13:51:08;;;;;;;19.00;12.00;;;;;;;-2.53;72.05;100574.35;423627;1312;142946;-70
2021/12/22 14:01:23;;;;;;;22.00;10.70;;;;;;;-2.68;72.11;100578.04;435311;1310;143722;-61
2021/12/22 14:11:34;;;;;;;19.30;12.40;;;;;;;-3.05;72.22;100580.86;434422;1309;142155;-64
2021/12/22 14:21:40;;;;;;;24.50;13.80;;;;;;;-3.40;72.60;100582.61;433140;1311;143052;-67
2021/12/22 14:32:04;;;;;;;25.50;13.60;;;;;;;-3.59;73.16;100580.03;431117;1306;142181;-66
2021/12/22 14:42:27;;;;;;;31.40;16.70;;;;;;;-3.74;73.36;100573.23;434326;1313;143013;-66
2021/12/22 14:52:33;;;;;;;24.60;14.30;;;;;;;-3.91;73.70;100581.94;426386;1316;141820;-68
2021/12/22 15:02:39;;;;;;;36.30;17.90;;;;;;;-4.09;74.04;100582.58;427729;1311;142782;-68
2021/12/22 15:12:45;;;;;;;28.70;16.90;;;;;;;-4.32;74.32;100580.25;429094;1312;142885;-70
2021/12/22 15:22:51;;;;;;;29.80;18.00;;;;;;;-4.44;74.56;100583.33;429793;1312;141813;-71
2021/12/22 15:32:58;;;;;;;30.50;17.30;;;;;;;-4.52;74.87;100588.87;433356;1312;142985;-69
2021/12/22 15:43:04;;;;;;;28.80;18.40;;;;;;;-4.70;74.97;100585.02;427565;1309;142303;-64
2021/12/22 15:53:09;;;;;;;;;;;;;;;-4.99;75.24;100581.88;434957;1311;143753;-62
2021/12/22 16:03:14;;;;;;;38.40;20.50;;;;;;;-5.16;75.49;100584.84;434682;1312;186416;-60
2021/12/22 16:13:21;;;;;;;43.60;24.80;;;;;;;-5.28;75.65;100586.69;434793;1311;142944;-60
2021/12/22 16:23:29;;;;;;;37.00;22.00;;;;;;;-5.40;75.74;100583.41;433529;1313;142414;-60
2021/12/22 16:33:43;;;;;;;43.10;26.00;;;;;;;-5.51;76.05;100582.38;424546;1312;142588;-60
2021/12/22 16:43:49;;;;;;;50.00;27.30;;;;;;;-5.60;76.33;100577.42;420505;1313;143804;-69
2021/12/22 16:53:55;;;;;;;44.50;27.00;;;;;;;-5.69;76.54;100578.12;433080;1311;142323;-59
2021/12/22 17:04:01;;;;;;;44.50;26.20;;;;;;;-5.74;76.84;100574.27;434701;1308;142869;-60
2021/12/22 17:14:05;;;;;;;;;;;;;;;-5.79;77.17;100560.71;433765;1312;141970;-62
2021/12/22 17:24:11;;;;;;;50.50;27.70;;;;;;;-5.85;77.26;100549.52;426035;1310;129828;-64
2021/12/22 17:34:17;;;;;;;52.80;32.50;;;;;;;-5.90;77.71;100531.52;428168;1311;142713;-62
2021/12/22 17:44:23;;;;;;;74.00;38.80;;;;;;;-5.99;78.02;100518.58;428700;1311;141325;-64
2021/12/22 17:54:29;;;;;;;86.00;49.50;;;;;;;-6.02;78.30;100528.08;420927;1310;142120;-70
2021/12/22 18:04:36;;;;;;;77.60;42.70;;;;;;;-6.05;78.42;100532.98;431723;1312;142292;-67
2021/12/22 18:14:43;;;;;;;71.90;42.30;;;;;;;-6.07;78.48;100530.05;433927;1311;141741;-69
2021/12/22 18:24:49;;;;;;;85.80;45.10;;;;;;;-6.13;78.52;100525.50;422427;1310;141973;-67
2021/12/22 18:35:03;;;;;;;69.80;41.50;;;;;;;-6.19;78.95;100512.27;434376;1307;143786;-64
2021/12/22 18:45:11;;;;;;;85.10;49.80;;;;;;;-6.24;78.95;100502.27;421566;1310;142916;-61
2021/12/22 18:55:16;;;;;;;111.70;64.20;;;;;;;-6.34;79.00;100503.61;430961;1308;142775;-60
2021/12/22 19:05:24;;;;;;;109.90;65.50;;;;;;;-6.42;79.32;100500.04;418954;1309;143271;-62
2021/12/22 19:15:31;;;;;;;117.40;68.40;;;;;;;-6.41;79.38;100499.89;434393;1309;142528;-63
2021/12/22 19:25:37;;;;;;;112.10;63.50;;;;;;;-6.36;79.53;100491.30;435048;1311;142776;-62
2021/12/22 19:35:44;;;;;;;;;;;;;;;-6.29;79.47;100478.66;434804;1308;142442;-67
2021/12/22 19:45:50;;;;;;;113.10;66.80;;;;;;;-6.20;79.85;100480.54;434244;1311;129029;-59
2021/12/22 19:55:54;;;;;;;;;;;;;;;-6.17;79.97;100474.95;433256;1309;141905;-61
2021/12/22 20:06:00;;;;;;;98.80;55.80;;;;;;;-6.23;79.95;100470.59;434822;1306;141032;-60
2021/12/22 20:16:05;;;;;;;;;;;;;;;-6.36;80.15;100460.12;434182;1311;143368;-59
2021/12/22 20:26:11;;;;;;;99.40;58.90;;;;;;;-6.47;80.40;100455.83;435480;1311;128100;-68
2021/12/22 20:36:17;;;;;;;82.10;51.20;;;;;;;-6.47;80.48;100457.36;433247;1310;143010;-70
2021/12/22 20:46:23;;;;;;;89.40;56.50;;;;;;;-6.43;80.57;100454.70;430248;1312;143106;-68
2021/12/22 20:56:29;;;;;;;105.70;55.40;;;;;;;-6.46;80.52;100437.27;421492;1310;141872;-68
2021/12/22 21:06:36;;;;;;;84.60;45.50;;;;;;;-6.56;80.61;100424.98;418058;1310;449035;-69
2021/12/22 21:16:42;;;;;;;67.60;39.60;;;;;;;-6.64;80.77;100419.38;429618;1311;141724;-69
2021/12/22 21:26:48;;;;;;;73.50;43.30;;;;;;;-6.64;80.97;100410.88;419011;1310;142789;-70
2021/12/22 21:36:54;;;;;;;64.20;40.40;;;;;;;-6.63;81.01;100413.11;423131;1307;143169;-72
2021/12/22 21:47:00;;;;;;;68.00;39.70;;;;;;;-6.62;80.98;100417.05;418646;1312;142459;-66
2021/12/22 21:57:23;;;;;;;70.00;38.40;;;;;;;-6.51;81.06;100418.10;432365;1311;142475;-66
2021/12/22 22:07:27;;;;;;;;;;;;;;;-6.41;80.93;100409.44;429286;1309;141804;-67
2021/12/22 22:17:33;;;;;;;72.30;36.40;;;;;;;-6.30;80.92;100397.02;424974;1310;127325;-67
2021/12/22 22:27:39;;;;;;;58.10;36.60;;;;;;;-6.18;80.82;100388.86;424139;1312;142120;-66
2021/12/22 22:37:47;;;;;;;65.10;39.50;;;;;;;-6.06;80.81;100382.08;419285;1310;142563;-69
2021/12/22 22:47:53;;;;;;;61.30;36.20;;;;;;;-5.94;80.88;100371.67;434987;1310;141868;-70
2021/12/22 22:57:59;;;;;;;65.00;37.60;;;;;;;-5.78;80.73;100376.02;435932;1309;141999;-68
2021/12/22 23:08:06;;;;;;;73.20;41.10;;;;;;;-5.65;80.68;100366.66;429781;1309;143527;-70
2021/12/22 23:18:15;;;;;;;62.80;37.70;;;;;;;-5.50;80.66;100351.50;433969;1307;142864;-69
2021/12/22 23:28:23;;;;;;;65.20;35.80;;;;;;;-5.36;80.47;100342.31;434702;1308;142569;-70
2021/12/22 23:49:03;;;;;;;48.70;27.90;;;;;;;-5.19;80.07;100307.02;432848;1310;142030;-70
2021/12/22 23:59:10;;;;;;;46.40;27.40;;;;;;;-5.24;79.79;100292.11;435298;1309;142170;-70
